sensor_id;sensor_type;location;lat;lon;timestamp;temperature;humidity
14769;DHT22;7476;49.404;11.152;2022-09-21T00:00:25;1.90;99.90
14769;DHT22;7476;49.404;11.152;2022-09-21T00:02:54;1.70;99.90
14769;DHT22;7476;49.404;11.152;2022-09-21T00:05:22;1.60;99.90
14769;DHT22;7476;49.404;11.152;2022-09-21T00:07:48;1.60;99.90
14769;DHT22;7476;49.404;11.152;2022-09-21T00:10:15;1.70;99.90
14769;DHT22;7476;49.404;11.152;2022-09-21T00:12:43;1.80;99.90
14769;DHT22;7476;49.404;11.152;2022-09-21T00:15:15;1.80;99.90
14769;DHT22;7476;49.404;11.152;2022-09-21T00:17:43;1.70;99.90
14769;DHT22;7476;49.404;11.152;2022-09-21T00:20:10;1.60;99.90
14769;DHT22;7476;49.404;11.152;2022-09-21T00:22:37;1.60;99.90
14769;DHT22;7476;49.404;11.152;2022-09-21T00:25:04;1.60;99.90
14769;DHT22;7476;49.404;11.152;2022-09-21T00:27:32;1.60;99.90
14769;DHT22;7476;49.404;11.152;2022-09-21T00:29:59;1.60;99.90
14769;DHT22;7476;49.404;11.152;2022-09-21T00:32:29;1.50;99.90
14769;DHT22;7476;49.404;11.152;2022-09-21T00:34:56;1.70;99.90
14769;DHT22;7476;49.404;11.152;2022-09-21T00:37:23;1.90;99.90
14769;DHT22;7476;49.404;11.152;2022-09-21T00:39:50;2.00;99.90
14769;DHT22;7476;49.404;11.152;2022-09-21T00:42:19;2.00;99.90
14769;DHT22;7476;49.404;11.152;2022-09-21T00:44:46;1.80;99.90
14769;DHT22;7476;49.404;11.152;2022-09-21T00:47:15;1.70;99.90
14769;DHT22;7476;49.404;11.152;2022-09-21T00:49:47;1.50;99.90
14769;DHT22;7476;49.404;11.152;2022-09-21T00:52:15;1.50;99.90
14769;DHT22;7476;49.404;11.152;2022-09-21T00:54:47;1.40;99.90
14769;DHT22;7476;49.404;11.152;2022-09-21T00:57:17;1.30;99.90
14769;DHT22;7476;49.404;11.152;2022-09-21T00:59:45;1.30;99.90
14769;DHT22;7476;49.404;11.152;2022-09-21T01:02:12;1.30;99.90
14769;DHT22;7476;49.404;11.152;2022-09-21T01:04:39;1.20;99.90
14769;DHT22;7476;49.404;11.152;2022-09-21T01:07:09;1.10;99.90
14769;DHT22;7476;49.404;11.152;2022-09-21T01:09:37;1.00;99.90
14769;DHT22;7476;49.404;11.152;2022-09-21T01:12:16;1.00;99.90
14769;DHT22;7476;49.404;11.152;2022-09-21T01:15:08;1.60;99.90
14769;DHT22;7476;49.404;11.152;2022-09-21T01:17:44;1.90;99.90
14769;DHT22;7476;49.404;11.152;2022-09-21T01:20:25;2.00;99.90
14769;DHT22;7476;49.404;11.152;2022-09-21T01:23:13;1.80;99.90
14769;DHT22;7476;49.404;11.152;2022-09-21T01:25:57;1.40;99.90
14769;DHT22;7476;49.404;11.152;2022-09-21T01:28:31;1.30;99.90
14769;DHT22;7476;49.404;11.152;2022-09-21T01:31:06;1.30;99.90
14769;DHT22;7476;49.404;11.152;2022-09-21T01:33:41;1.40;99.90
14769;DHT22;7476;49.404;11.152;2022-09-21T01:36:13;1.70;99.90
14769;DHT22;7476;49.404;11.152;2022-09-21T01:38:43;1.60;99.90
14769;DHT22;7476;49.404;11.152;2022-09-21T01:41:13;1.30;99.90
14769;DHT22;7476;49.404;11.152;2022-09-21T01:43:42;1.10;99.90
14769;DHT22;7476;49.404;11.152;2022-09-21T01:46:16;1.00;99.90
14769;DHT22;7476;49.404;11.152;2022-09-21T01:48:46;1.00;99.90
14769;DHT22;7476;49.404;11.152;2022-09-21T01:51:16;1.00;99.90
14769;DHT22;7476;49.404;11.152;2022-09-21T01:53:47;1.50;99.90
14769;DHT22;7476;49.404;11.152;2022-09-21T01:56:18;1.20;99.90
14769;DHT22;7476;49.404;11.152;2022-09-21T01:58:51;1.00;99.90
14769;DHT22;7476;49.404;11.152;2022-09-21T02:01:23;0.90;99.90
14769;DHT22;7476;49.404;11.152;2022-09-21T02:03:56;1.00;99.90
14769;DHT22;7476;49.404;11.152;2022-09-21T02:06:24;1.20;99.90
14769;DHT22;7476;49.404;11.152;2022-09-21T02:08:52;1.10;99.90
14769;DHT22;7476;49.404;11.152;2022-09-21T02:11:19;0.90;99.90
14769;DHT22;7476;49.404;11.152;2022-09-21T02:13:48;0.90;99.90
14769;DHT22;7476;49.404;11.152;2022-09-21T02:19:14;1.00;99.90
14769;DHT22;7476;49.404;11.152;2022-09-21T02:21:55;1.10;99.90
14769;DHT22;7476;49.404;11.152;2022-09-21T02:24:30;1.50;99.90
14769;DHT22;7476;49.404;11.152;2022-09-21T02:27:03;1.40;99.90
14769;DHT22;7476;49.404;11.152;2022-09-21T02:29:36;1.30;99.90
14769;DHT22;7476;49.404;11.152;2022-09-21T02:32:08;1.50;99.90
14769;DHT22;7476;49.404;11.152;2022-09-21T02:34:43;1.60;99.90
14769;DHT22;7476;49.404;11.152;2022-09-21T02:37:16;1.70;99.90
14769;DHT22;7476;49.404;11.152;2022-09-21T02:39:54;1.80;99.90
14769;DHT22;7476;49.404;11.152;2022-09-21T02:42:27;1.80;99.90
14769;DHT22;7476;49.404;11.152;2022-09-21T02:45:00;1.90;99.90
14769;DHT22;7476;49.404;11.152;2022-09-21T02:47:31;1.90;99.90
14769;DHT22;7476;49.404;11.152;2022-09-21T02:50:04;2.00;99.90
14769;DHT22;7476;49.404;11.152;2022-09-21T02:52:33;2.30;99.90
14769;DHT22;7476;49.404;11.152;2022-09-21T02:55:02;2.50;99.90
14769;DHT22;7476;49.404;11.152;2022-09-21T02:57:29;2.50;99.90
14769;DHT22;7476;49.404;11.152;2022-09-21T02:59:56;2.60;99.90
14769;DHT22;7476;49.404;11.152;2022-09-21T03:02:23;2.50;99.90
14769;DHT22;7476;49.404;11.152;2022-09-21T03:04:49;2.50;99.90
14769;DHT22;7476;49.404;11.152;2022-09-21T03:07:17;2.60;99.90
14769;DHT22;7476;49.404;11.152;2022-09-21T03:09:44;2.60;99.90
14769;DHT22;7476;49.404;11.152;2022-09-21T03:12:11;2.70;99.90
14769;DHT22;7476;49.404;11.152;2022-09-21T03:14:38;2.80;99.90
14769;DHT22;7476;49.404;11.152;2022-09-21T03:17:04;2.90;99.90
14769;DHT22;7476;49.404;11.152;2022-09-21T03:19:31;3.00;99.90
14769;DHT22;7476;49.404;11.152;2022-09-21T03:21:58;3.10;99.90
14769;DHT22;7476;49.404;11.152;2022-09-21T03:24:26;3.10;99.90
14769;DHT22;7476;49.404;11.152;2022-09-21T03:27:11;3.10;99.90
14769;DHT22;7476;49.404;11.152;2022-09-21T03:29:37;3.10;99.90
14769;DHT22;7476;49.404;11.152;2022-09-21T03:32:04;3.20;99.90
14769;DHT22;7476;49.404;11.152;2022-09-21T03:34:31;3.20;99.90
14769;DHT22;7476;49.404;11.152;2022-09-21T03:36:58;3.30;99.90
14769;DHT22;7476;49.404;11.152;2022-09-21T03:39:27;3.30;99.90
14769;DHT22;7476;49.404;11.152;2022-09-21T03:41:53;3.30;99.90
14769;DHT22;7476;49.404;11.152;2022-09-21T03:44:20;3.30;99.90
14769;DHT22;7476;49.404;11.152;2022-09-21T03:46:47;3.30;99.90
14769;DHT22;7476;49.404;11.152;2022-09-21T03:49:14;3.40;99.90
14769;DHT22;7476;49.404;11.152;2022-09-21T03:51:41;3.40;99.90
14769;DHT22;7476;49.404;11.152;2022-09-21T03:54:08;3.40;99.90
14769;DHT22;7476;49.404;11.152;2022-09-21T03:56:36;3.40;99.90
14769;DHT22;7476;49.404;11.152;2022-09-21T03:59:03;3.40;99.90
14769;DHT22;7476;49.404;11.152;2022-09-21T04:01:29;3.40;99.90
14769;DHT22;7476;49.404;11.152;2022-09-21T04:03:56;3.30;99.90
14769;DHT22;7476;49.404;11.152;2022-09-21T04:06:23;3.40;99.90
14769;DHT22;7476;49.404;11.152;2022-09-21T04:08:50;3.40;99.90
14769;DHT22;7476;49.404;11.152;2022-09-21T04:11:18;3.50;99.90
14769;DHT22;7476;49.404;11.152;2022-09-21T04:13:50;3.50;99.90
14769;DHT22;7476;49.404;11.152;2022-09-21T04:16:21;3.50;99.90
14769;DHT22;7476;49.404;11.152;2022-09-21T04:18:48;3.50;99.90
14769;DHT22;7476;49.404;11.152;2022-09-21T04:21:15;3.60;99.90
14769;DHT22;7476;49.404;11.152;2022-09-21T04:23:42;3.60;99.90
14769;DHT22;7476;49.404;11.152;2022-09-21T04:26:19;3.70;99.90
14769;DHT22;7476;49.404;11.152;2022-09-21T04:28:46;3.70;99.90
14769;DHT22;7476;49.404;11.152;2022-09-21T04:31:14;3.70;99.90
14769;DHT22;7476;49.404;11.152;2022-09-21T04:33:40;3.70;99.90
14769;DHT22;7476;49.404;11.152;2022-09-21T04:36:07;3.60;99.90
14769;DHT22;7476;49.404;11.152;2022-09-21T04:38:34;3.60;99.90
14769;DHT22;7476;49.404;11.152;2022-09-21T04:41:00;3.60;99.90
14769;DHT22;7476;49.404;11.152;2022-09-21T04:43:27;3.60;99.90
14769;DHT22;7476;49.404;11.152;2022-09-21T04:45:54;3.70;99.90
14769;DHT22;7476;49.404;11.152;2022-09-21T04:48:22;3.70;99.90
14769;DHT22;7476;49.404;11.152;2022-09-21T04:50:49;3.70;99.90
14769;DHT22;7476;49.404;11.152;2022-09-21T04:53:16;3.80;99.90
14769;DHT22;7476;49.404;11.152;2022-09-21T04:55:43;3.80;99.90
14769;DHT22;7476;49.404;11.152;2022-09-21T04:58:10;3.80;99.90
14769;DHT22;7476;49.404;11.152;2022-09-21T05:00:37;3.70;99.90
14769;DHT22;7476;49.404;11.152;2022-09-21T05:03:03;3.80;99.90
14769;DHT22;7476;49.404;11.152;2022-09-21T05:05:31;3.70;99.90
14769;DHT22;7476;49.404;11.152;2022-09-21T05:07:58;3.70;99.90
14769;DHT22;7476;49.404;11.152;2022-09-21T05:10:25;3.80;99.90
14769;DHT22;7476;49.404;11.152;2022-09-21T05:12:50;3.80;99.90
14769;DHT22;7476;49.404;11.152;2022-09-21T05:15:17;3.80;99.90
14769;DHT22;7476;49.404;11.152;2022-09-21T05:17:44;3.90;99.90
14769;DHT22;7476;49.404;11.152;2022-09-21T05:20:12;3.90;99.90
14769;DHT22;7476;49.404;11.152;2022-09-21T05:22:40;3.90;99.90
14769;DHT22;7476;49.404;11.152;2022-09-21T05:25:08;4.00;99.90
14769;DHT22;7476;49.404;11.152;2022-09-21T05:27:34;4.10;99.90
14769;DHT22;7476;49.404;11.152;2022-09-21T05:30:02;4.00;99.90
14769;DHT22;7476;49.404;11.152;2022-09-21T05:32:40;4.10;99.90
14769;DHT22;7476;49.404;11.152;2022-09-21T05:35:15;4.10;99.90
14769;DHT22;7476;49.404;11.152;2022-09-21T05:37:49;4.10;99.90
14769;DHT22;7476;49.404;11.152;2022-09-21T05:40:18;4.10;99.90
14769;DHT22;7476;49.404;11.152;2022-09-21T05:42:45;4.10;99.90
14769;DHT22;7476;49.404;11.152;2022-09-21T05:45:14;4.20;99.90
14769;DHT22;7476;49.404;11.152;2022-09-21T05:47:51;4.20;99.90
14769;DHT22;7476;49.404;11.152;2022-09-21T05:50:29;4.30;99.90
14769;DHT22;7476;49.404;11.152;2022-09-21T05:53:10;4.40;99.90
14769;DHT22;7476;49.404;11.152;2022-09-21T05:55:50;4.40;99.90
14769;DHT22;7476;49.404;11.152;2022-09-21T05:58:24;4.40;99.90
14769;DHT22;7476;49.404;11.152;2022-09-21T06:01:03;4.40;99.90
14769;DHT22;7476;49.404;11.152;2022-09-21T06:03:36;4.30;99.90
14769;DHT22;7476;49.404;11.152;2022-09-21T06:06:03;4.20;99.90
14769;DHT22;7476;49.404;11.152;2022-09-21T06:08:31;4.30;99.90
14769;DHT22;7476;49.404;11.152;2022-09-21T06:10:58;4.40;99.90
14769;DHT22;7476;49.404;11.152;2022-09-21T06:13:25;4.60;99.90
14769;DHT22;7476;49.404;11.152;2022-09-21T06:15:52;4.80;99.90
14769;DHT22;7476;49.404;11.152;2022-09-21T06:18:19;5.00;99.90
14769;DHT22;7476;49.404;11.152;2022-09-21T06:20:46;5.00;99.90
14769;DHT22;7476;49.404;11.152;2022-09-21T06:23:13;5.10;99.90
14769;DHT22;7476;49.404;11.152;2022-09-21T06:25:41;5.00;99.90
14769;DHT22;7476;49.404;11.152;2022-09-21T06:28:09;5.10;99.90
14769;DHT22;7476;49.404;11.152;2022-09-21T06:30:36;5.10;99.90
14769;DHT22;7476;49.404;11.152;2022-09-21T06:33:05;5.20;99.90
14769;DHT22;7476;49.404;11.152;2022-09-21T06:35:33;5.00;99.90
14769;DHT22;7476;49.404;11.152;2022-09-21T06:38:00;5.10;99.90
14769;DHT22;7476;49.404;11.152;2022-09-21T06:40:28;5.20;99.90
14769;DHT22;7476;49.404;11.152;2022-09-21T06:42:56;5.40;99.90
14769;DHT22;7476;49.404;11.152;2022-09-21T06:45:24;5.60;99.90
14769;DHT22;7476;49.404;11.152;2022-09-21T06:47:50;5.70;99.90
14769;DHT22;7476;49.404;11.152;2022-09-21T06:50:17;5.40;99.90
14769;DHT22;7476;49.404;11.152;2022-09-21T06:52:44;5.40;99.90
14769;DHT22;7476;49.404;11.152;2022-09-21T06:55:11;5.60;99.90
14769;DHT22;7476;49.404;11.152;2022-09-21T06:57:38;5.80;99.90
14769;DHT22;7476;49.404;11.152;2022-09-21T07:00:08;6.20;99.90
14769;DHT22;7476;49.404;11.152;2022-09-21T07:02:35;6.20;99.90
14769;DHT22;7476;49.404;11.152;2022-09-21T07:05:03;6.20;99.90
14769;DHT22;7476;49.404;11.152;2022-09-21T07:07:29;6.20;99.90
14769;DHT22;7476;49.404;11.152;2022-09-21T07:09:57;6.10;99.90
14769;DHT22;7476;49.404;11.152;2022-09-21T07:12:27;6.10;99.90
14769;DHT22;7476;49.404;11.152;2022-09-21T07:14:53;6.00;99.90
14769;DHT22;7476;49.404;11.152;2022-09-21T07:17:21;6.40;99.90
14769;DHT22;7476;49.404;11.152;2022-09-21T07:19:48;6.60;99.90
14769;DHT22;7476;49.404;11.152;2022-09-21T07:22:15;6.60;99.90
14769;DHT22;7476;49.404;11.152;2022-09-21T07:24:41;6.70;99.90
14769;DHT22;7476;49.404;11.152;2022-09-21T07:27:08;6.30;99.90
14769;DHT22;7476;49.404;11.152;2022-09-21T07:29:35;6.50;99.90
14769;DHT22;7476;49.404;11.152;2022-09-21T07:32:01;6.30;99.90
14769;DHT22;7476;49.404;11.152;2022-09-21T07:34:35;6.70;99.90
14769;DHT22;7476;49.404;11.152;2022-09-21T07:37:02;7.10;99.90
14769;DHT22;7476;49.404;11.152;2022-09-21T07:39:29;7.30;99.90
14769;DHT22;7476;49.404;11.152;2022-09-21T07:41:56;6.90;99.90
14769;DHT22;7476;49.404;11.152;2022-09-21T07:44:23;6.80;99.90
14769;DHT22;7476;49.404;11.152;2022-09-21T07:46:51;6.80;99.90
14769;DHT22;7476;49.404;11.152;2022-09-21T07:49:17;7.10;99.90
14769;DHT22;7476;49.404;11.152;2022-09-21T07:51:46;7.20;99.90
14769;DHT22;7476;49.404;11.152;2022-09-21T07:54:12;7.80;99.90
14769;DHT22;7476;49.404;11.152;2022-09-21T07:56:40;8.70;99.90
14769;DHT22;7476;49.404;11.152;2022-09-21T07:59:07;9.10;99.90
14769;DHT22;7476;49.404;11.152;2022-09-21T08:01:34;9.10;99.90
14769;DHT22;7476;49.404;11.152;2022-09-21T08:04:01;9.00;99.90
14769;DHT22;7476;49.404;11.152;2022-09-21T08:06:29;9.20;99.90
14769;DHT22;7476;49.404;11.152;2022-09-21T08:08:59;9.30;99.90
14769;DHT22;7476;49.404;11.152;2022-09-21T08:11:26;9.40;99.90
14769;DHT22;7476;49.404;11.152;2022-09-21T08:13:55;9.30;99.90
14769;DHT22;7476;49.404;11.152;2022-09-21T08:16:22;9.60;99.90
14769;DHT22;7476;49.404;11.152;2022-09-21T08:18:49;9.50;99.90
14769;DHT22;7476;49.404;11.152;2022-09-21T08:21:17;9.90;99.90
14769;DHT22;7476;49.404;11.152;2022-09-21T08:23:44;10.20;99.90
14769;DHT22;7476;49.404;11.152;2022-09-21T08:26:15;10.50;99.90
14769;DHT22;7476;49.404;11.152;2022-09-21T08:28:43;10.40;99.90
14769;DHT22;7476;49.404;11.152;2022-09-21T08:31:14;10.50;99.90
14769;DHT22;7476;49.404;11.152;2022-09-21T08:33:41;10.60;99.90
14769;DHT22;7476;49.404;11.152;2022-09-21T08:36:08;10.60;99.90
14769;DHT22;7476;49.404;11.152;2022-09-21T08:38:36;10.80;99.90
14769;DHT22;7476;49.404;11.152;2022-09-21T08:41:14;11.10;99.90
14769;DHT22;7476;49.404;11.152;2022-09-21T08:43:44;11.30;99.90
14769;DHT22;7476;49.404;11.152;2022-09-21T08:46:15;11.10;99.90
14769;DHT22;7476;49.404;11.152;2022-09-21T08:48:46;11.60;99.90
14769;DHT22;7476;49.404;11.152;2022-09-21T08:51:19;11.60;99.90
14769;DHT22;7476;49.404;11.152;2022-09-21T08:53:49;11.30;99.90
14769;DHT22;7476;49.404;11.152;2022-09-21T08:56:18;11.40;99.90
14769;DHT22;7476;49.404;11.152;2022-09-21T08:58:46;11.70;99.90
14769;DHT22;7476;49.404;11.152;2022-09-21T09:01:30;11.90;99.90
14769;DHT22;7476;49.404;11.152;2022-09-21T09:04:22;11.50;99.90
14769;DHT22;7476;49.404;11.152;2022-09-21T09:07:00;11.50;99.90
14769;DHT22;7476;49.404;11.152;2022-09-21T09:09:46;11.80;99.90
14769;DHT22;7476;49.404;11.152;2022-09-21T09:12:25;11.90;99.90
14769;DHT22;7476;49.404;11.152;2022-09-21T09:15:17;12.20;99.90
14769;DHT22;7476;49.404;11.152;2022-09-21T09:17:53;12.50;99.90
14769;DHT22;7476;49.404;11.152;2022-09-21T09:20:28;13.30;99.90
14769;DHT22;7476;49.404;11.152;2022-09-21T09:23:03;13.50;99.90
14769;DHT22;7476;49.404;11.152;2022-09-21T09:25:36;13.40;99.90
14769;DHT22;7476;49.404;11.152;2022-09-21T09:28:17;13.60;99.90
14769;DHT22;7476;49.404;11.152;2022-09-21T09:30:47;14.00;99.90
14769;DHT22;7476;49.404;11.152;2022-09-21T09:33:19;14.90;99.90
14769;DHT22;7476;49.404;11.152;2022-09-21T09:35:51;15.80;99.90
14769;DHT22;7476;49.404;11.152;2022-09-21T09:38:23;15.70;99.90
14769;DHT22;7476;49.404;11.152;2022-09-21T09:44:11;13.60;99.90
14769;DHT22;7476;49.404;11.152;2022-09-21T09:46:52;13.80;99.90
14769;DHT22;7476;49.404;11.152;2022-09-21T09:49:30;14.10;99.90
14769;DHT22;7476;49.404;11.152;2022-09-21T09:51:58;14.40;99.90
14769;DHT22;7476;49.404;11.152;2022-09-21T09:54:26;14.60;99.90
14769;DHT22;7476;49.404;11.152;2022-09-21T09:56:55;14.60;99.90
14769;DHT22;7476;49.404;11.152;2022-09-21T09:59:28;14.30;99.90
14769;DHT22;7476;49.404;11.152;2022-09-21T10:02:02;14.20;99.90
14769;DHT22;7476;49.404;11.152;2022-09-21T10:04:29;14.10;99.90
14769;DHT22;7476;49.404;11.152;2022-09-21T10:06:56;14.10;99.90
14769;DHT22;7476;49.404;11.152;2022-09-21T10:09:24;14.00;99.90
14769;DHT22;7476;49.404;11.152;2022-09-21T10:11:52;14.10;99.90
14769;DHT22;7476;49.404;11.152;2022-09-21T10:14:22;14.20;99.90
14769;DHT22;7476;49.404;11.152;2022-09-21T10:16:51;14.20;99.90
14769;DHT22;7476;49.404;11.152;2022-09-21T10:19:21;13.90;99.90
14769;DHT22;7476;49.404;11.152;2022-09-21T10:21:54;13.60;99.90
14769;DHT22;7476;49.404;11.152;2022-09-21T10:24:23;13.60;99.90
14769;DHT22;7476;49.404;11.152;2022-09-21T10:26:52;13.60;99.90
14769;DHT22;7476;49.404;11.152;2022-09-21T10:29:32;14.10;99.90
14769;DHT22;7476;49.404;11.152;2022-09-21T10:32:18;14.70;99.90
14769;DHT22;7476;49.404;11.152;2022-09-21T10:35:12;15.00;99.90
14769;DHT22;7476;49.404;11.152;2022-09-21T10:37:40;15.30;99.90
14769;DHT22;7476;49.404;11.152;2022-09-21T10:40:26;16.00;99.90
14769;DHT22;7476;49.404;11.152;2022-09-21T10:42:54;16.40;99.90
14769;DHT22;7476;49.404;11.152;2022-09-21T10:45:24;16.40;99.90
14769;DHT22;7476;49.404;11.152;2022-09-21T10:47:55;15.60;99.90
14769;DHT22;7476;49.404;11.152;2022-09-21T10:50:25;16.40;99.90
14769;DHT22;7476;49.404;11.152;2022-09-21T10:52:56;16.90;99.90
14769;DHT22;7476;49.404;11.152;2022-09-21T10:55:24;17.00;99.90
14769;DHT22;7476;49.404;11.152;2022-09-21T10:57:52;17.70;99.90
14769;DHT22;7476;49.404;11.152;2022-09-21T11:00:39;17.90;99.90
14769;DHT22;7476;49.404;11.152;2022-09-21T11:03:37;18.50;99.90
14769;DHT22;7476;49.404;11.152;2022-09-21T11:06:12;19.20;99.90
14769;DHT22;7476;49.404;11.152;2022-09-21T11:08:43;19.10;99.90
14769;DHT22;7476;49.404;11.152;2022-09-21T11:11:24;19.60;99.90
14769;DHT22;7476;49.404;11.152;2022-09-21T11:13:59;19.80;99.90
14769;DHT22;7476;49.404;11.152;2022-09-21T11:16:35;19.90;99.90
14769;DHT22;7476;49.404;11.152;2022-09-21T11:19:11;19.70;99.90
14769;DHT22;7476;49.404;11.152;2022-09-21T11:21:45;19.30;99.90
14769;DHT22;7476;49.404;11.152;2022-09-21T11:24:21;17.50;99.90
14769;DHT22;7476;49.404;11.152;2022-09-21T11:26:53;16.80;99.90
14769;DHT22;7476;49.404;11.152;2022-09-21T11:29:25;17.10;99.90
14769;DHT22;7476;49.404;11.152;2022-09-21T11:32:05;18.20;99.90
14769;DHT22;7476;49.404;11.152;2022-09-21T11:34:57;19.00;99.90
14769;DHT22;7476;49.404;11.152;2022-09-21T11:40:37;18.70;99.90
14769;DHT22;7476;49.404;11.152;2022-09-21T11:43:17;19.10;99.90
14769;DHT22;7476;49.404;11.152;2022-09-21T11:45:53;17.90;99.90
14769;DHT22;7476;49.404;11.152;2022-09-21T11:48:32;18.90;99.90
14769;DHT22;7476;49.404;11.152;2022-09-21T11:51:12;19.10;99.90
14769;DHT22;7476;49.404;11.152;2022-09-21T11:54:02;20.50;99.90
14769;DHT22;7476;49.404;11.152;2022-09-21T11:56:38;21.80;99.90
14769;DHT22;7476;49.404;11.152;2022-09-21T11:59:24;22.40;99.90
14769;DHT22;7476;49.404;11.152;2022-09-21T12:02:10;22.60;99.20
14769;DHT22;7476;49.404;11.152;2022-09-21T12:04:47;20.10;99.90
14769;DHT22;7476;49.404;11.152;2022-09-21T12:07:28;18.80;99.90
14769;DHT22;7476;49.404;11.152;2022-09-21T12:13:06;16.70;99.90
14769;DHT22;7476;49.404;11.152;2022-09-21T12:15:38;16.40;99.90
14769;DHT22;7476;49.404;11.152;2022-09-21T12:18:10;16.20;99.90
14769;DHT22;7476;49.404;11.152;2022-09-21T12:20:43;16.50;99.90
14769;DHT22;7476;49.404;11.152;2022-09-21T12:23:17;17.10;99.90
14769;DHT22;7476;49.404;11.152;2022-09-21T12:25:48;18.60;99.90
14769;DHT22;7476;49.404;11.152;2022-09-21T12:28:20;20.20;99.90
14769;DHT22;7476;49.404;11.152;2022-09-21T12:30:53;22.00;98.10
14769;DHT22;7476;49.404;11.152;2022-09-21T12:33:30;23.50;93.50
14769;DHT22;7476;49.404;11.152;2022-09-21T12:36:02;24.50;89.80
14769;DHT22;7476;49.404;11.152;2022-09-21T12:38:38;23.10;95.90
14769;DHT22;7476;49.404;11.152;2022-09-21T12:41:10;19.60;96.50
14769;DHT22;7476;49.404;11.152;2022-09-21T12:43:42;18.60;99.90
14769;DHT22;7476;49.404;11.152;2022-09-21T12:46:14;18.10;99.90
14769;DHT22;7476;49.404;11.152;2022-09-21T12:48:42;18.30;99.90
14769;DHT22;7476;49.404;11.152;2022-09-21T12:51:13;17.10;99.90
14769;DHT22;7476;49.404;11.152;2022-09-21T12:53:45;17.00;99.90
14769;DHT22;7476;49.404;11.152;2022-09-21T12:56:23;17.60;99.90
14769;DHT22;7476;49.404;11.152;2022-09-21T12:59:08;19.10;99.90
14769;DHT22;7476;49.404;11.152;2022-09-21T13:01:42;20.60;97.60
14769;DHT22;7476;49.404;11.152;2022-09-21T13:04:29;21.60;95.30
14769;DHT22;7476;49.404;11.152;2022-09-21T13:07:27;22.10;94.50
14769;DHT22;7476;49.404;11.152;2022-09-21T13:09:59;23.00;89.40
14769;DHT22;7476;49.404;11.152;2022-09-21T13:12:29;24.00;84.90
14769;DHT22;7476;49.404;11.152;2022-09-21T13:15:02;23.70;85.30
14769;DHT22;7476;49.404;11.152;2022-09-21T13:17:31;25.00;88.10
14769;DHT22;7476;49.404;11.152;2022-09-21T13:20:01;25.10;84.40
14769;DHT22;7476;49.404;11.152;2022-09-21T13:22:30;27.00;85.70
14769;DHT22;7476;49.404;11.152;2022-09-21T13:25:02;26.70;87.80
14769;DHT22;7476;49.404;11.152;2022-09-21T13:27:56;27.50;80.70
14769;DHT22;7476;49.404;11.152;2022-09-21T13:30:31;26.70;78.70
14769;DHT22;7476;49.404;11.152;2022-09-21T13:32:59;25.00;85.50
14769;DHT22;7476;49.404;11.152;2022-09-21T13:35:50;24.00;85.60
14769;DHT22;7476;49.404;11.152;2022-09-21T13:38:25;23.90;84.30
14769;DHT22;7476;49.404;11.152;2022-09-21T13:41:00;24.00;80.30
14769;DHT22;7476;49.404;11.152;2022-09-21T13:44:02;24.60;82.00
14769;DHT22;7476;49.404;11.152;2022-09-21T13:46:51;20.60;86.80
14769;DHT22;7476;49.404;11.152;2022-09-21T13:49:41;19.90;92.00
14769;DHT22;7476;49.404;11.152;2022-09-21T13:52:25;21.90;87.60
14769;DHT22;7476;49.404;11.152;2022-09-21T13:54:55;23.90;80.50
14769;DHT22;7476;49.404;11.152;2022-09-21T13:57:28;25.90;82.10
14769;DHT22;7476;49.404;11.152;2022-09-21T14:00:11;26.70;74.40
14769;DHT22;7476;49.404;11.152;2022-09-21T14:02:55;27.20;78.40
14769;DHT22;7476;49.404;11.152;2022-09-21T14:05:25;27.20;76.10
14769;DHT22;7476;49.404;11.152;2022-09-21T14:07:55;27.40;71.00
14769;DHT22;7476;49.404;11.152;2022-09-21T14:10:24;27.20;67.90
14769;DHT22;7476;49.404;11.152;2022-09-21T14:12:53;27.00;69.00
14769;DHT22;7476;49.404;11.152;2022-09-21T14:15:38;27.00;71.00
14769;DHT22;7476;49.404;11.152;2022-09-21T14:18:35;26.00;71.80
14769;DHT22;7476;49.404;11.152;2022-09-21T14:21:10;26.00;76.20
14769;DHT22;7476;49.404;11.152;2022-09-21T14:27:01;21.80;82.00
14769;DHT22;7476;49.404;11.152;2022-09-21T14:29:38;19.80;88.50
14769;DHT22;7476;49.404;11.152;2022-09-21T14:32:13;18.10;91.70
14769;DHT22;7476;49.404;11.152;2022-09-21T14:34:43;17.00;94.00
14769;DHT22;7476;49.404;11.152;2022-09-21T14:37:19;16.10;97.70
14769;DHT22;7476;49.404;11.152;2022-09-21T14:39:48;15.70;99.60
14769;DHT22;7476;49.404;11.152;2022-09-21T14:42:18;15.60;99.90
14769;DHT22;7476;49.404;11.152;2022-09-21T14:44:47;15.50;99.70
14769;DHT22;7476;49.404;11.152;2022-09-21T14:47:35;15.40;99.90
14769;DHT22;7476;49.404;11.152;2022-09-21T14:50:23;15.40;99.90
14769;DHT22;7476;49.404;11.152;2022-09-21T14:53:25;15.30;99.90
14769;DHT22;7476;49.404;11.152;2022-09-21T14:56:14;15.20;99.90
14769;DHT22;7476;49.404;11.152;2022-09-21T14:58:57;15.00;99.90
14769;DHT22;7476;49.404;11.152;2022-09-21T15:01:37;14.90;99.90
14769;DHT22;7476;49.404;11.152;2022-09-21T15:07:40;14.60;99.90
14769;DHT22;7476;49.404;11.152;2022-09-21T15:10:49;14.50;99.90
14769;DHT22;7476;49.404;11.152;2022-09-21T15:13:46;16.10;99.90
14769;DHT22;7476;49.404;11.152;2022-09-21T15:16:30;18.80;99.90
14769;DHT22;7476;49.404;11.152;2022-09-21T15:19:11;21.00;99.20
14769;DHT22;7476;49.404;11.152;2022-09-21T15:21:40;23.10;94.80
14769;DHT22;7476;49.404;11.152;2022-09-21T15:24:30;24.10;92.70
14769;DHT22;7476;49.404;11.152;2022-09-21T15:27:04;25.10;82.20
14769;DHT22;7476;49.404;11.152;2022-09-21T15:29:35;26.50;80.20
14769;DHT22;7476;49.404;11.152;2022-09-21T15:32:04;26.60;74.90
14769;DHT22;7476;49.404;11.152;2022-09-21T15:34:33;26.10;73.20
14769;DHT22;7476;49.404;11.152;2022-09-21T15:37:11;25.50;72.60
14769;DHT22;7476;49.404;11.152;2022-09-21T15:39:40;25.90;72.70
14769;DHT22;7476;49.404;11.152;2022-09-21T15:42:15;26.10;72.70
14769;DHT22;7476;49.404;11.152;2022-09-21T15:44:45;26.60;70.20
14769;DHT22;7476;49.404;11.152;2022-09-21T15:47:15;27.10;67.50
14769;DHT22;7476;49.404;11.152;2022-09-21T15:49:45;25.20;80.20
14769;DHT22;7476;49.404;11.152;2022-09-21T15:52:17;24.30;79.10
14769;DHT22;7476;49.404;11.152;2022-09-21T15:54:49;23.70;76.40
14769;DHT22;7476;49.404;11.152;2022-09-21T15:57:27;22.50;79.30
14769;DHT22;7476;49.404;11.152;2022-09-21T15:59:55;22.30;78.40
14769;DHT22;7476;49.404;11.152;2022-09-21T16:02:23;21.70;85.10
14769;DHT22;7476;49.404;11.152;2022-09-21T16:04:52;20.90;86.40
14769;DHT22;7476;49.404;11.152;2022-09-21T16:07:29;20.90;89.80
14769;DHT22;7476;49.404;11.152;2022-09-21T16:09:56;19.80;91.10
14769;DHT22;7476;49.404;11.152;2022-09-21T16:12:39;19.70;91.70
14769;DHT22;7476;49.404;11.152;2022-09-21T16:15:23;19.30;91.80
14769;DHT22;7476;49.404;11.152;2022-09-21T16:17:54;20.00;92.80
14769;DHT22;7476;49.404;11.152;2022-09-21T16:20:25;20.00;90.80
14769;DHT22;7476;49.404;11.152;2022-09-21T16:23:04;19.30;92.80
14769;DHT22;7476;49.404;11.152;2022-09-21T16:25:33;19.60;92.80
14769;DHT22;7476;49.404;11.152;2022-09-21T16:28:04;19.90;92.70
14769;DHT22;7476;49.404;11.152;2022-09-21T16:30:44;20.10;93.20